Time;durP1;ratioP1;P1;durP2;ratioP2;P2;SDS_P1;SDS_P2;PMS_P1;PMS_P2;Temp;Humidity;BMP_temperature;BMP_pressure;BME280_temperature;BME280_humidity;BME280_pressure;Samples;Min_cycle;Max_cycle;Signal;HPM_P1;HPM_P2
2021/09/07 00:02:58;;;;;;;9.65;5.85;;;;;;;11.74;66.36;100910.23;2164091;80;21513;-78
2021/09/07 00:06:00;;;;;;;11.15;6.33;;;;;;;11.73;66.79;100897.45;2165234;80;21432;-79
2021/09/07 00:09:02;;;;;;;9.53;5.22;;;;;;;11.71;66.79;100895.43;2169182;80;21033;-79
2021/09/07 00:12:04;;;;;;;12.95;7.05;;;;;;;11.57;67.08;100876.91;2162143;80;21111;-77
2021/09/07 00:15:09;;;;;;;11.38;6.42;;;;;;;11.65;67.08;100887.58;2156112;80;21046;-80
2021/09/07 00:18:12;;;;;;;13.70;7.95;;;;;;;11.64;67.06;100893.89;2164671;80;21010;-77
2021/09/07 00:21:14;;;;;;;14.45;6.58;;;;;;;11.63;67.08;100885.59;2163373;80;21051;-79
2021/09/07 00:24:18;;;;;;;13.28;7.60;;;;;;;11.62;67.86;100886.56;2159568;80;21530;-79
2021/09/07 00:27:19;;;;;;;14.15;6.92;;;;;;;11.62;67.86;100886.56;2146605;80;21072;-78
2021/09/07 00:30:21;;;;;;;13.13;6.70;;;;;;;11.59;67.70;100893.52;2138379;82;21060;-79
2021/09/07 00:33:23;;;;;;;13.03;6.92;;;;;;;11.57;67.51;100895.98;2134693;82;21033;-78
2021/09/07 00:36:24;;;;;;;11.10;7.42;;;;;;;11.59;67.74;100894.84;2134391;82;21008;-79
2021/09/07 00:39:26;;;;;;;10.50;6.75;;;;;;;11.57;67.76;100891.53;2133866;82;21030;-77
2021/09/07 00:42:27;;;;;;;11.97;6.90;;;;;;;11.55;67.70;100892.67;2135340;82;21516;-77
2021/09/07 00:45:28;;;;;;;14.70;7.53;;;;;;;11.54;68.14;100892.31;2139454;82;20945;-77
2021/09/07 00:48:30;;;;;;;14.10;7.70;;;;;;;11.53;68.30;100890.66;2132908;82;21020;-78
2021/09/07 00:51:32;;;;;;;14.75;7.92;;;;;;;11.53;68.55;100891.48;2137303;82;21087;-77
2021/09/07 00:54:37;;;;;;;15.80;9.60;;;;;;;11.53;68.53;100886.67;2133469;82;21010;-78
2021/09/07 00:57:39;;;;;;;13.13;7.90;;;;;;;11.53;68.60;100890.66;2130773;82;21512;-78
2021/09/07 01:00:43;;;;;;;16.30;8.48;;;;;;;11.56;68.78;100885.86;2127387;82;20986;-77
2021/09/07 01:03:44;;;;;;;14.80;7.42;;;;;;;11.57;68.78;100883.56;2132194;82;21005;-79
2021/09/07 01:06:47;;;;;;;13.90;7.87;;;;;;;11.52;68.75;100881.86;2127405;82;21019;-77
2021/09/07 01:09:50;;;;;;;13.28;7.25;;;;;;;11.50;69.06;100867.05;2129746;82;21691;-77
2021/09/07 01:12:53;;;;;;;10.90;6.75;;;;;;;11.50;69.06;100867.05;2129764;82;21010;-77
2021/09/07 01:15:55;;;;;;;12.28;6.95;;;;;;;11.51;68.68;100872.19;2129746;82;21029;-79
2021/09/07 01:18:58;;;;;;;10.40;6.28;;;;;;;11.52;68.29;100863.75;2136422;82;21341;-78
2021/09/07 01:22:00;;;;;;;11.45;5.70;;;;;;;11.55;68.75;100861.61;2129700;82;20991;-79
2021/09/07 01:25:01;;;;;;;10.43;5.95;;;;;;;11.59;68.59;100853.65;2126612;82;20983;-77
2021/09/07 01:28:03;;;;;;;10.68;6.28;;;;;;;11.61;68.73;100853.01;2147626;80;21512;-79
2021/09/07 01:31:07;;;;;;;10.65;6.15;;;;;;;11.64;68.33;100849.20;2169471;80;21572;-78
2021/09/07 01:34:21;;;;;;;11.35;6.03;;;;;;;11.70;68.17;100841.94;2160215;80;21536;-78
2021/09/07 01:37:23;;;;;;;8.68;5.80;;;;;;;11.74;68.45;100847.77;2153701;80;21064;-78
2021/09/07 01:40:24;;;;;;;12.55;5.50;;;;;;;11.76;68.16;100848.45;2159847;80;21480;-78
2021/09/07 01:43:27;;;;;;;10.55;6.00;;;;;;;11.78;68.17;100847.80;2153388;80;21002;-79
2021/09/07 01:46:28;;;;;;;17.87;6.78;;;;;;;11.82;68.28;100847.81;2163398;80;21002;-79
2021/09/07 01:49:29;;;;;;;9.25;5.85;;;;;;;11.84;68.69;100856.48;2165038;80;20953;-79
2021/09/07 01:52:31;;;;;;;11.05;5.45;;;;;;;11.86;68.75;100858.02;2159389;80;20987;-79
2021/09/07 01:55:32;;;;;;;11.33;6.08;;;;;;;11.87;68.77;100864.17;2165354;80;20960;-78
2021/09/07 01:58:34;;;;;;;10.58;5.85;;;;;;;11.90;69.10;100863.85;2163132;80;21051;-79
2021/09/07 02:01:36;;;;;;;11.08;6.22;;;;;;;11.93;69.44;100856.89;2161171;80;21089;-78
2021/09/07 02:04:38;;;;;;;12.65;6.05;;;;;;;11.94;69.40;100862.56;2156478;80;21092;-79
2021/09/07 02:07:40;;;;;;;10.65;5.70;;;;;;;11.95;69.09;100862.89;2168100;80;21023;-78
2021/09/07 02:10:42;;;;;;;11.80;5.72;;;;;;;11.95;69.38;100858.91;2164202;80;21055;-78
2021/09/07 02:13:43;;;;;;;8.18;4.97;;;;;;;11.95;69.49;100860.23;2156410;80;20944;-78
2021/09/07 02:16:46;;;;;;;11.25;5.75;;;;;;;11.97;69.77;100854.27;2164765;80;21037;-79
2021/09/07 02:19:47;;;;;;;9.95;5.75;;;;;;;11.96;69.73;100859.23;2165903;80;20966;-78
2021/09/07 02:22:48;;;;;;;11.33;5.37;;;;;;;11.97;69.79;100865.41;2165167;80;21006;-78
2021/09/07 02:25:51;;;;;;;11.68;5.67;;;;;;;11.82;69.97;100843.33;2164704;80;21017;-78
2021/09/07 02:28:53;;;;;;;9.33;5.62;;;;;;;11.82;69.97;100843.33;2167703;80;21022;-78
2021/09/07 02:31:55;;;;;;;11.65;5.47;;;;;;;11.91;70.07;100852.25;2172381;80;21516;-78
2021/09/07 02:34:57;;;;;;;14.63;6.22;;;;;;;11.91;70.16;100843.41;2171300;80;21064;-77
2021/09/07 02:38:02;;;;;;;8.63;4.97;;;;;;;11.89;70.43;100840.42;2170120;80;21577;-79
2021/09/07 02:41:04;;;;;;;13.08;6.25;;;;;;;11.89;70.40;100847.07;2176755;80;21044;-79
2021/09/07 02:44:06;;;;;;;7.58;5.22;;;;;;;11.88;70.45;100843.22;2176946;80;21072;-78
2021/09/07 02:47:08;;;;;;;11.93;5.22;;;;;;;11.88;70.33;100839.23;2172201;80;21003;-79
2021/09/07 02:50:13;;;;;;;11.48;5.37;;;;;;;11.84;70.47;100831.22;2166554;80;21058;-78
2021/09/07 02:53:14;;;;;;;11.00;6.45;;;;;;;11.75;70.46;100825.52;2175803;80;20959;-79
2021/09/07 02:56:16;;;;;;;10.85;5.62;;;;;;;11.55;70.59;100824.41;2176914;80;21082;-77
2021/09/07 02:59:20;;;;;;;10.78;5.75;;;;;;;11.44;70.70;100822.00;2177545;80;21560;-79
2021/09/07 03:02:25;;;;;;;7.87;5.37;;;;;;;11.40;70.66;100825.47;2169133;80;21073;-79
2021/09/07 03:05:27;;;;;;;12.30;7.10;;;;;;;11.40;70.64;100827.27;2174231;80;21044;-78
2021/09/07 03:08:29;;;;;;;21.85;8.03;;;;;;;11.40;70.68;100826.80;2173482;80;21478;-78
2021/09/07 03:11:31;;;;;;;15.00;7.00;;;;;;;11.41;70.61;100824.97;2173398;80;20981;-80
2021/09/07 03:14:33;;;;;;;10.85;6.67;;;;;;;11.43;70.66;100817.18;2167741;80;21013;-79
2021/09/07 03:17:35;;;;;;;11.15;5.85;;;;;;;11.48;70.77;100822.02;2173478;80;21028;-78
2021/09/07 03:20:36;;;;;;;13.45;6.30;;;;;;;11.49;71.10;100813.06;2177853;80;21074;-78
2021/09/07 03:23:38;;;;;;;11.55;6.35;;;;;;;11.51;71.08;100811.06;2175595;80;20966;-79
2021/09/07 03:26:40;;;;;;;9.83;5.90;;;;;;;11.50;71.00;100821.87;2182125;80;21038;-79
2021/09/07 03:29:43;;;;;;;9.75;6.35;;;;;;;11.50;71.16;100818.71;2164311;80;21112;-79
2021/09/07 03:32:46;;;;;;;8.28;5.67;;;;;;;11.49;71.28;100818.39;2154950;80;21645;-78
2021/09/07 03:35:48;;;;;;;8.78;5.85;;;;;;;11.49;71.39;100815.73;2164122;80;21009;-79
2021/09/07 03:38:51;;;;;;;15.48;6.97;;;;;;;11.48;71.45;100814.04;2155556;80;20999;-78
2021/09/07 03:41:53;;;;;;;10.08;5.85;;;;;;;11.49;71.65;100820.18;2161057;80;21034;-79
2021/09/07 03:44:56;;;;;;;12.28;6.10;;;;;;;11.47;71.77;100821.69;2159268;80;21076;-80
2021/09/07 03:47:59;;;;;;;7.90;5.67;;;;;;;11.46;71.83;100821.36;2162615;80;21647;-79
2021/09/07 03:51:01;;;;;;;12.80;6.00;;;;;;;11.44;71.95;100817.52;2160369;80;21693;-78
2021/09/07 03:54:03;;;;;;;9.63;5.42;;;;;;;11.44;71.97;100823.33;2157996;80;21189;-79
2021/09/07 03:57:04;;;;;;;11.03;6.00;;;;;;;11.42;72.02;100826.63;2163261;80;21001;-78
2021/09/07 04:00:09;;;;;;;12.88;5.58;;;;;;;11.41;72.12;100825.80;2165522;80;20980;-78
2021/09/07 04:03:18;;;;;;;11.53;5.70;;;;;;;11.40;72.15;100821.95;2164629;80;21721;-79
2021/09/07 04:06:20;;;;;;;9.78;5.53;;;;;;;11.37;72.12;100818.28;2157581;80;21700;-77
2021/09/07 04:09:24;;;;;;;9.98;6.20;;;;;;;11.34;72.24;100816.77;2165638;80;21067;-77
2021/09/07 04:12:26;;;;;;;12.47;5.95;;;;;;;11.30;72.25;100815.41;2162194;80;21087;-79
2021/09/07 04:15:28;;;;;;;11.00;6.10;;;;;;;11.27;72.28;100814.90;2165416;80;21582;-79
2021/09/07 04:18:31;;;;;;;11.20;6.03;;;;;;;11.27;72.34;100820.21;2154694;80;21012;-78
2021/09/07 04:21:32;;;;;;;10.38;5.97;;;;;;;11.25;72.43;100819.52;2156522;80;20993;-78
2021/09/07 04:24:34;;;;;;;10.13;6.53;;;;;;;11.22;72.42;100824.65;2153970;80;21447;-78
2021/09/07 04:27:36;;;;;;;11.53;6.17;;;;;;;11.16;72.57;100823.44;2163367;80;20997;-77
2021/09/07 04:30:38;;;;;;;11.22;5.83;;;;;;;11.10;72.70;100825.38;2163462;80;21008;-77
2021/09/07 04:33:41;;;;;;;9.15;6.42;;;;;;;11.08;72.80;100834.48;2161280;80;21095;-78
2021/09/07 04:36:43;;;;;;;10.30;6.22;;;;;;;11.08;72.82;100828.67;2160196;80;21102;-79
2021/09/07 04:39:49;;;;;;;8.33;5.67;;;;;;;11.08;72.89;100836.64;2164174;80;21520;-77
2021/09/07 04:42:47;;;;;;;12.05;5.65;;;;;;;11.05;72.97;100835.62;2162426;80;20996;-78
2021/09/07 04:45:50;;;;;;;11.60;5.70;;;;;;;11.03;73.00;100837.59;2164405;80;21044;-79
2021/09/07 04:48:56;;;;;;;11.05;5.92;;;;;;;11.06;73.19;100847.08;2172002;80;20994;-78
2021/09/07 04:51:58;;;;;;;9.90;6.15;;;;;;;11.09;73.41;100851.58;2160398;80;21048;-78
2021/09/07 04:54:59;;;;;;;10.25;6.42;;;;;;;11.12;73.44;100843.80;2168635;80;20919;-77
2021/09/07 04:58:01;;;;;;;8.35;5.92;;;;;;;11.13;73.48;100850.31;2162462;80;21010;-80
2021/09/07 05:01:04;;;;;;;12.00;5.72;;;;;;;11.14;73.59;100842.67;2163896;80;21048;-78
2021/09/07 05:04:05;;;;;;;10.20;5.40;;;;;;;11.19;73.69;100854.17;2160881;80;21022;-79
2021/09/07 05:07:07;;;;;;;13.70;6.12;;;;;;;11.24;73.62;100853.23;2158922;80;21010;-79
2021/09/07 05:10:09;;;;;;;9.95;6.08;;;;;;;11.28;73.69;100849.77;2158313;80;20979;-78
2021/09/07 05:13:10;;;;;;;11.48;6.37;;;;;;;11.31;73.70;100850.78;2154946;80;20995;-79
2021/09/07 05:16:12;;;;;;;14.13;6.10;;;;;;;11.33;73.78;100854.95;2159390;80;21043;-77
2021/09/07 05:19:15;;;;;;;13.25;7.03;;;;;;;11.37;73.88;100857.63;2161048;80;21033;-79
2021/09/07 05:22:17;;;;;;;7.87;5.90;;;;;;;11.41;73.87;100854.20;2166108;80;21506;-78
2021/09/07 05:25:18;;;;;;;10.82;6.28;;;;;;;11.48;73.97;100857.06;2158654;80;21049;-80
2021/09/07 05:28:20;;;;;;;12.18;6.10;;;;;;;11.57;73.88;100861.44;2155179;80;21089;-77
2021/09/07 05:31:21;;;;;;;12.63;6.45;;;;;;;11.63;73.89;100864.33;2131134;82;21021;-77
2021/09/07 05:34:23;;;;;;;8.75;5.87;;;;;;;11.71;73.99;100862.20;2135029;82;21502;-77
2021/09/07 05:37:25;;;;;;;8.08;5.92;;;;;;;11.78;74.06;100862.43;2137763;82;21025;-79
2021/09/07 05:40:26;;;;;;;8.38;5.78;;;;;;;11.86;74.07;100859.36;2137845;82;21027;-80
2021/09/07 05:43:28;;;;;;;13.05;6.45;;;;;;;11.94;74.02;100857.25;2134729;82;20955;-79
2021/09/07 05:46:30;;;;;;;11.97;6.30;;;;;;;11.92;74.03;100835.28;2130357;82;21733;-78
2021/09/07 05:49:32;;;;;;;15.30;5.97;;;;;;;12.07;74.00;100841.67;2126478;82;21480;-78
2021/09/07 05:52:34;;;;;;;10.20;6.30;;;;;;;12.33;73.88;100856.75;2137918;82;21562;-78
2021/09/07 05:55:35;;;;;;;12.70;6.17;;;;;;;12.57;73.96;100866.66;2135554;82;20956;-79
2021/09/07 05:58:38;;;;;;;12.20;6.78;;;;;;;12.87;73.93;100867.09;2136624;82;21007;-78
2021/09/07 06:01:40;;;;;;;12.15;6.97;;;;;;;13.13;73.49;100871.78;2136416;82;21654;-77
2021/09/07 06:04:41;;;;;;;10.75;6.95;;;;;;;13.41;73.28;100868.33;2126580;82;21510;-78
2021/09/07 06:07:43;;;;;;;15.68;6.90;;;;;;;13.69;72.85;100874.64;2126344;82;21728;-78
2021/09/07 06:10:44;;;;;;;11.10;6.70;;;;;;;13.87;72.32;100871.27;2137978;82;21016;-78
2021/09/07 06:13:46;;;;;;;14.45;7.72;;;;;;;14.06;72.24;100869.23;2136904;82;21045;-80
2021/09/07 06:16:47;;;;;;;13.35;7.47;;;;;;;14.26;71.92;100873.16;2139109;82;21003;-78
2021/09/07 06:19:49;;;;;;;13.62;7.42;;;;;;;14.39;71.15;100869.09;2132275;82;20969;-78
2021/09/07 06:22:52;;;;;;;11.08;7.08;;;;;;;14.50;70.85;100875.39;2136545;82;21047;-78
2021/09/07 06:25:57;;;;;;;14.25;7.37;;;;;;;14.56;70.61;100873.42;2133368;82;21569;-79
2021/09/07 06:28:56;;;;;;;10.93;6.60;;;;;;;14.66;70.64;100877.20;2147913;80;21078;-78
2021/09/07 06:31:58;;;;;;;13.88;7.62;;;;;;;14.78;70.62;100881.98;2165533;80;21034;-80
2021/09/07 06:35:00;;;;;;;14.78;7.17;;;;;;;14.90;70.57;100875.73;2166372;80;21099;-78
2021/09/07 06:38:01;;;;;;;18.55;8.25;;;;;;;14.98;70.35;100873.52;2161706;80;20988;-78
2021/09/07 06:41:06;;;;;;;15.60;7.20;;;;;;;15.06;70.09;100884.13;2158168;80;21025;-78
2021/09/07 06:44:06;;;;;;;16.67;7.92;;;;;;;15.15;70.07;100880.41;2160603;80;21033;-77
2021/09/07 06:47:07;;;;;;;13.22;7.87;;;;;;;15.29;69.84;100887.31;2159220;80;21037;-79
2021/09/07 06:50:11;;;;;;;14.18;8.83;;;;;;;15.41;69.63;100885.89;2161703;80;21028;-81
2021/09/07 06:53:12;;;;;;;14.43;8.70;;;;;;;15.56;69.38;100889.43;2163224;80;20985;-78
2021/09/07 06:56:14;;;;;;;19.00;9.68;;;;;;;15.69;69.14;100888.86;2160726;80;21038;-80
2021/09/07 06:59:15;;;;;;;25.02;12.75;;;;;;;15.83;69.06;100892.58;2166422;80;21588;-82
2021/09/07 07:02:17;;;;;;;21.00;12.95;;;;;;;16.00;68.90;100889.23;2153278;80;21528;-81
2021/09/07 07:05:18;;;;;;;25.32;12.60;;;;;;;16.21;68.89;100893.84;2163640;80;20948;-82
2021/09/07 07:08:20;;;;;;;23.40;13.28;;;;;;;16.49;68.70;100894.01;2156897;79;20984;-80
2021/09/07 07:11:21;;;;;;;18.90;9.83;;;;;;;16.82;68.69;100889.60;2164734;80;21433;-77
2021/09/07 07:14:23;;;;;;;17.65;10.03;;;;;;;16.99;68.28;100889.17;2161316;80;20997;-81
2021/09/07 07:17:24;;;;;;;17.75;10.30;;;;;;;17.16;68.13;100889.75;2159624;80;21033;-81
2021/09/07 07:20:26;;;;;;;14.98;9.95;;;;;;;17.34;68.02;100887.13;2159170;80;21522;-84
2021/09/07 07:23:27;;;;;;;20.97;10.20;;;;;;;17.46;67.73;100896.34;2164143;80;21026;-79
2021/09/07 07:26:29;;;;;;;14.10;10.72;;;;;;;17.62;67.97;100896.56;2168449;80;20966;-81
2021/09/07 07:29:31;;;;;;;19.87;11.95;;;;;;;17.79;67.58;100895.27;2165655;79;21065;-81
2021/09/07 07:32:33;;;;;;;17.50;12.37;;;;;;;18.05;67.63;100901.87;2176174;80;21011;-82
2021/09/07 07:35:34;;;;;;;18.45;11.97;;;;;;;18.25;66.43;100912.22;2180502;80;21380;-81
2021/09/07 07:38:36;;;;;;;14.15;10.65;;;;;;;18.26;66.42;100909.84;2178749;80;20989;-83
2021/09/07 07:41:37;;;;;;;16.27;11.08;;;;;;;18.30;66.29;100905.75;2173507;80;21027;-79
2021/09/07 07:44:39;;;;;;;18.00;10.53;;;;;;;18.34;65.89;100910.20;2176035;80;20969;-79
2021/09/07 07:47:40;;;;;;;22.05;11.60;;;;;;;18.42;65.99;100909.22;2181734;80;21017;-78
2021/09/07 07:50:42;;;;;;;29.63;12.23;;;;;;;18.58;66.07;100916.92;2172658;80;21410;-80
2021/09/07 07:53:43;;;;;;;17.35;11.78;;;;;;;18.76;65.84;100918.59;2176532;80;20984;-82
2021/09/07 07:56:45;;;;;;;20.35;11.12;;;;;;;18.96;65.72;100916.48;2178354;80;20986;-78
2021/09/07 07:59:47;;;;;;;17.77;10.88;;;;;;;19.08;65.25;100919.41;2180161;80;21017;-82
2021/09/07 08:02:48;;;;;;;20.45;10.45;;;;;;;19.17;64.64;100913.62;2174604;80;21021;-82
2021/09/07 08:05:50;;;;;;;16.07;10.55;;;;;;;19.30;64.60;100918.73;2176839;80;21600;-81
2021/09/07 08:08:52;;;;;;;24.60;11.63;;;;;;;19.31;63.84;100920.38;2181507;80;21585;-82
2021/09/07 08:11:53;;;;;;;24.63;10.95;;;;;;;19.41;63.64;100922.98;2178183;80;20987;-81
2021/09/07 08:14:55;;;;;;;26.52;12.45;;;;;;;19.53;63.60;100923.73;2177483;80;20990;-78
2021/09/07 08:17:56;;;;;;;20.43;12.33;;;;;;;19.65;63.24;100922.95;2175771;80;21261;-85
2021/09/07 08:20:59;;;;;;;18.20;10.88;;;;;;;19.75;63.04;100925.21;2171820;80;21006;-82
2021/09/07 08:24:01;;;;;;;20.48;11.80;;;;;;;19.86;62.64;100925.11;2170970;80;21073;-85
2021/09/07 08:27:03;;;;;;;25.72;12.68;;;;;;;20.06;62.85;100929.95;2176582;80;21068;-83
2021/09/07 08:30:06;;;;;;;25.27;12.93;;;;;;;20.19;62.23;100929.60;2166967;80;21006;-83
2021/09/07 08:33:16;;;;;;;22.45;11.48;;;;;;;20.26;61.79;100936.64;2158443;80;21091;-82
2021/09/07 08:36:17;;;;;;;;;;;;;;;20.38;61.89;100934.12;2158073;80;21051;-81
2021/09/07 08:39:19;;;;;;;26.17;13.05;;;;;;;20.52;61.57;100938.44;2164709;80;20148;-80
2021/09/07 08:42:21;;;;;;;21.33;12.25;;;;;;;20.77;61.36;100940.45;2156246;80;20989;-84
2021/09/07 08:45:23;;;;;;;21.33;12.82;;;;;;;21.33;60.86;100938.92;2154271;80;20984;-85
2021/09/07 08:48:26;;;;;;;19.67;11.22;;;;;;;21.77;59.67;100933.13;2161562;80;21908;-85
2021/09/07 08:51:28;;;;;;;18.45;10.45;;;;;;;22.12;59.73;100936.93;2159951;80;21042;-84
2021/09/07 08:54:29;;;;;;;18.37;10.13;;;;;;;22.40;57.89;100943.75;2153624;80;21028;-85
2021/09/07 08:57:31;;;;;;;22.30;11.30;;;;;;;22.55;58.00;100936.10;2159214;80;21004;-86
2021/09/07 09:00:35;;;;;;;21.35;10.55;;;;;;;22.72;57.58;100940.88;2156984;80;21020;-85
2021/09/07 09:03:46;;;;;;;19.02;9.85;;;;;;;22.77;56.86;100941.02;2148974;80;21083;-84
2021/09/07 09:06:48;;;;;;;18.27;10.08;;;;;;;22.84;56.28;100939.08;2155411;80;21034;-86
2021/09/07 09:09:52;;;;;;;18.27;9.68;;;;;;;22.73;55.90;100945.25;2158391;80;21633;-84
2021/09/07 09:13:12;;;;;;;34.40;10.98;;;;;;;22.71;56.10;100950.88;2138192;80;20970;-87
2021/09/07 09:16:15;;;;;;;14.18;9.08;;;;;;;22.63;55.64;100949.83;2161611;80;20991;-88
2021/09/07 09:19:17;;;;;;;16.23;10.98;;;;;;;22.60;55.73;100951.63;2157499;80;21052;-86
2021/09/07 09:22:19;;;;;;;15.08;10.15;;;;;;;22.60;55.49;100947.05;2155808;80;21063;-83
2021/09/07 09:25:34;;;;;;;14.53;8.85;;;;;;;22.62;55.22;100953.59;2153881;80;21069;-84
2021/09/07 09:28:36;;;;;;;18.55;9.95;;;;;;;22.63;55.13;100957.94;2155282;80;21460;-87
2021/09/07 09:32:00;;;;;;;20.20;10.48;;;;;;;22.68;55.01;100951.86;2154859;80;21010;-85
2021/09/07 09:35:06;;;;;;;16.90;9.55;;;;;;;22.71;54.78;100953.58;2155943;80;20963;-85
2021/09/07 09:38:06;;;;;;;15.05;9.85;;;;;;;22.82;54.42;100954.17;2156710;80;21075;-86
2021/09/07 09:41:09;;;;;;;12.70;9.40;;;;;;;23.03;54.03;100950.70;2161655;80;20959;-85
2021/09/07 09:44:11;;;;;;;16.60;10.00;;;;;;;23.43;53.96;100949.63;2160086;80;21048;-86
2021/09/07 09:47:12;;;;;;;13.72;8.83;;;;;;;23.94;53.39;100954.14;2157101;80;21062;-84
2021/09/07 09:50:14;;;;;;;13.93;8.95;;;;;;;24.43;52.34;100949.80;2154549;80;21449;-86
2021/09/07 09:53:20;;;;;;;14.00;9.20;;;;;;;24.84;52.38;100948.80;2156875;80;20981;-87
2021/09/07 09:56:22;;;;;;;16.00;9.40;;;;;;;25.01;51.12;100949.67;2162568;80;20977;-85
2021/09/07 09:59:27;;;;;;;48.28;10.95;;;;;;;25.06;51.11;100944.88;2138407;80;20976;-86
2021/09/07 10:02:29;;;;;;;15.25;9.40;;;;;;;25.36;50.57;100947.88;2157217;80;21430;-86
2021/09/07 10:05:31;;;;;;;18.55;10.32;;;;;;;25.76;49.93;100934.69;2160644;80;20963;-86
2021/09/07 10:08:33;;;;;;;17.05;9.68;;;;;;;26.23;49.47;100939.77;2150473;80;20987;-86
2021/09/07 10:11:36;;;;;;;14.63;9.40;;;;;;;26.55;47.85;100929.90;2159320;80;20993;-82
2021/09/07 10:14:43;;;;;;;13.88;9.80;;;;;;;26.69;47.26;100930.30;2153349;80;21063;-82
2021/09/07 10:17:48;;;;;;;18.35;9.23;;;;;;;26.74;46.86;100916.77;2157801;80;21054;-85
2021/09/07 10:20:52;;;;;;;13.32;9.90;;;;;;;26.96;46.70;100924.09;2160501;80;21770;-81
2021/09/07 10:27:00;;;;;;;12.80;8.55;;;;;;;26.37;45.70;100920.09;2165804;80;21017;-81
2021/09/07 10:30:01;;;;;;;12.33;8.58;;;;;;;26.08;45.63;100919.98;2166570;80;21036;-84
2021/09/07 10:33:23;;;;;;;15.65;8.90;;;;;;;25.86;45.61;100928.09;2178843;80;21002;-83
2021/09/07 10:36:32;;;;;;;13.28;8.90;;;;;;;25.72;44.92;100927.56;2119164;80;21138;-83
2021/09/07 10:39:40;;;;;;;13.90;8.00;;;;;;;25.25;44.13;100931.94;2173159;80;21072;-80
2021/09/07 10:42:53;;;;;;;11.45;8.50;;;;;;;24.76;44.83;100920.14;2176427;80;21043;-83
2021/09/07 10:45:55;;;;;;;16.73;8.73;;;;;;;24.38;45.09;100926.10;2182256;80;21029;-82
2021/09/07 10:49:16;;;;;;;19.10;9.00;;;;;;;24.10;45.16;100937.18;2175898;80;20998;-81
2021/09/07 10:52:29;;;;;;;15.65;9.63;;;;;;;23.93;45.92;100933.50;2175234;80;20993;-82
2021/09/07 10:55:35;;;;;;;14.80;9.43;;;;;;;23.76;45.71;100943.39;2171745;80;21361;-84
2021/09/07 10:58:37;;;;;;;14.55;8.73;;;;;;;23.50;45.80;100943.55;2168265;80;21017;-83
2021/09/07 11:01:39;;;;;;;14.03;8.93;;;;;;;23.35;46.71;100945.89;2169592;80;20985;-82
2021/09/07 11:04:52;;;;;;;14.15;9.83;;;;;;;23.26;47.00;100942.69;2172371;80;21018;-83
2021/09/07 11:08:25;;;;;;;19.20;9.40;;;;;;;23.21;46.96;100938.48;2181243;80;21092;-83
2021/09/07 11:11:28;;;;;;;16.30;9.68;;;;;;;23.24;47.29;100942.08;2163152;80;21068;-83
2021/09/07 11:14:29;;;;;;;11.65;10.15;;;;;;;23.19;47.42;100947.89;2167449;80;20966;-80
2021/09/07 11:17:33;;;;;;;14.35;9.35;;;;;;;23.09;47.78;100945.75;2183463;80;21035;-81
2021/09/07 11:20:45;;;;;;;11.68;9.73;;;;;;;22.98;47.90;100941.11;2178342;80;21457;-81
2021/09/07 11:23:46;;;;;;;12.65;8.83;;;;;;;22.88;47.93;100944.84;2179862;80;21477;-81
2021/09/07 11:26:58;;;;;;;16.95;9.18;;;;;;;22.86;48.58;100945.59;2171440;80;21018;-81
2021/09/07 11:30:19;;;;;;;17.92;10.15;;;;;;;22.77;48.78;100936.44;2178589;80;21799;-81
2021/09/07 11:33:31;;;;;;;15.32;9.83;;;;;;;22.70;48.63;100937.06;2174702;80;20959;-80
2021/09/07 11:36:32;;;;;;;12.40;9.58;;;;;;;22.64;49.28;100939.33;2181173;80;21086;-80
2021/09/07 11:39:34;;;;;;;13.83;9.78;;;;;;;22.64;49.10;100936.62;2171839;80;21568;-80
2021/09/07 11:42:46;;;;;;;14.78;9.90;;;;;;;22.63;49.07;100937.66;2178826;80;21469;-80
2021/09/07 11:45:48;;;;;;;15.23;9.83;;;;;;;22.63;49.25;100936.84;2170338;80;21003;-80
2021/09/07 11:49:00;;;;;;;13.30;9.53;;;;;;;22.60;48.79;100943.52;2175120;80;21025;-80
2021/09/07 11:52:02;;;;;;;12.45;10.08;;;;;;;22.55;48.83;100947.42;2172582;80;21034;-80
2021/09/07 11:55:07;;;;;;;13.32;9.75;;;;;;;22.51;48.60;100942.17;2168119;80;21838;-81
2021/09/07 11:58:12;;;;;;;17.12;10.20;;;;;;;22.45;49.08;100941.73;2170143;80;21041;-82
2021/09/07 12:01:22;;;;;;;17.82;11.18;;;;;;;22.45;49.10;100945.79;2169837;80;21057;-79
2021/09/07 12:04:23;;;;;;;18.70;10.38;;;;;;;22.42;49.50;100947.59;2176114;80;21010;-81
2021/09/07 12:07:25;;;;;;;17.60;10.32;;;;;;;22.41;49.92;100947.27;2175406;80;21088;-81
2021/09/07 12:10:27;;;;;;;17.20;10.08;;;;;;;22.47;49.91;100945.02;2169537;80;20975;-80
2021/09/07 12:13:29;;;;;;;12.53;9.55;;;;;;;22.53;49.70;100946.31;2172504;80;21029;-83
2021/09/07 12:16:34;;;;;;;13.53;9.85;;;;;;;22.63;49.98;100948.47;2179595;80;21485;-82
2021/09/07 12:19:43;;;;;;;14.03;10.28;;;;;;;22.66;49.62;100951.25;2176422;80;20957;-82
2021/09/07 12:22:46;;;;;;;19.95;10.15;;;;;;;22.70;49.43;100941.12;2176215;80;20998;-82
2021/09/07 12:25:47;;;;;;;15.25;10.38;;;;;;;22.77;49.03;100940.49;2172677;80;21014;-80
2021/09/07 12:28:49;;;;;;;14.38;10.53;;;;;;;22.85;48.84;100943.42;2166453;80;20964;-80
2021/09/07 12:31:56;;;;;;;14.47;10.98;;;;;;;22.96;48.72;100938.63;2167871;80;20983;-83
2021/09/07 12:34:58;;;;;;;15.20;10.15;;;;;;;23.09;48.90;100940.84;2170604;80;21050;-81
2021/09/07 12:38:02;;;;;;;20.20;10.50;;;;;;;23.22;48.63;100946.89;2165082;80;21482;-81
2021/09/07 12:41:15;;;;;;;14.28;9.40;;;;;;;23.23;48.26;100934.20;2164886;80;21052;-81
2021/09/07 12:44:17;;;;;;;12.70;10.30;;;;;;;23.21;48.28;100936.31;2163877;80;21549;-79
2021/09/07 12:47:18;;;;;;;14.03;11.70;;;;;;;23.32;48.03;100927.94;2171310;80;21565;-81
2021/09/07 12:50:20;;;;;;;24.98;18.73;;;;;;;23.56;48.17;100935.56;2170092;80;21579;-84
2021/09/07 12:53:23;;;;;;;12.15;10.60;;;;;;;23.74;47.66;100938.73;2169643;80;20990;-83
2021/09/07 12:56:34;;;;;;;13.43;10.30;;;;;;;23.73;47.45;100937.09;2168525;80;21041;-82
2021/09/07 12:59:29;;;;;;;16.40;11.28;;;;;;;23.76;47.44;100942.86;2165615;80;21016;-80
2021/09/07 13:02:30;;;;;;;29.80;11.20;;;;;;;23.74;47.52;100941.44;2165219;80;21520;-82
2021/09/07 13:05:32;;;;;;;14.70;10.72;;;;;;;23.60;47.39;100943.00;2161368;80;21039;-81
2021/09/07 13:08:34;;;;;;;14.55;10.35;;;;;;;23.57;47.54;100938.05;2172074;80;20991;-77
2021/09/07 13:11:36;;;;;;;23.62;10.00;;;;;;;23.46;47.37;100932.91;2165747;80;21059;-80
2021/09/07 13:14:37;;;;;;;13.40;9.55;;;;;;;23.38;46.96;100937.83;2168741;80;21031;-78
2021/09/07 13:17:39;;;;;;;13.15;9.68;;;;;;;23.22;46.88;100929.83;2168348;80;21005;-78
2021/09/07 13:20:40;;;;;;;12.73;9.68;;;;;;;23.13;46.99;100934.75;2162356;80;21594;-80
2021/09/07 13:23:42;;;;;;;16.05;10.40;;;;;;;23.09;47.19;100931.36;2161400;80;21017;-78
2021/09/07 13:26:44;;;;;;;13.75;10.40;;;;;;;23.03;46.91;100934.46;2176833;80;21439;-80
2021/09/07 13:29:45;;;;;;;13.65;9.78;;;;;;;23.02;47.43;100932.82;2168856;80;21497;-81
2021/09/07 13:32:47;;;;;;;13.80;9.93;;;;;;;23.01;47.37;100929.30;2177154;80;21018;-81
2021/09/07 13:35:48;;;;;;;13.90;10.93;;;;;;;22.93;47.29;100926.88;2171720;80;21024;-80
2021/09/07 13:38:50;;;;;;;13.08;10.13;;;;;;;22.88;47.18;100925.37;2175683;80;21092;-81
2021/09/07 13:41:51;;;;;;;14.13;10.68;;;;;;;22.82;47.56;100915.47;2174083;80;20960;-81
2021/09/07 13:44:53;;;;;;;21.93;12.45;;;;;;;22.75;48.02;100915.57;2174312;80;21632;-80
2021/09/07 13:47:55;;;;;;;17.92;11.68;;;;;;;22.78;48.23;100913.76;2176230;80;20978;-79
2021/09/07 13:50:56;;;;;;;17.35;11.53;;;;;;;22.80;48.66;100914.87;2177862;80;20982;-80
2021/09/07 13:53:58;;;;;;;16.57;11.75;;;;;;;22.83;48.82;100916.61;2172522;80;21015;-79
2021/09/07 13:57:00;;;;;;;22.60;13.93;;;;;;;22.86;48.99;100913.95;2176118;80;21089;-80
2021/09/07 14:00:04;;;;;;;19.35;14.07;;;;;;;22.87;49.18;100915.62;2180342;80;20978;-81
2021/09/07 14:03:07;;;;;;;22.00;12.30;;;;;;;22.82;49.03;100916.30;2180971;80;21032;-82
2021/09/07 14:06:09;;;;;;;22.32;11.00;;;;;;;22.77;49.19;100913.97;2177066;80;20994;-80